Time,TemperatureF,DewpointF,PressureIn,WindDirection,WindDirectionDegrees,WindSpeedMPH,WindSpeedGustMPH,Humidity,HourlyPrecipIn,Conditions,Clouds,dailyrainin,SoftwareType,DateUTC
2013-05-11 00:00:00,60.9,59.5,29.91,North,355,0.0,0.0,95,0.00,,,1.31,Wunderground v.1.15,2013-05-11 05:00:00,
2013-05-11 00:05:00,60.9,59.5,29.91,North,355,0.0,0.0,95,0.00,,,1.31,Wunderground v.1.15,2013-05-11 05:05:00,
2013-05-11 00:10:00,60.8,59.4,29.91,North,355,0.0,0.0,95,0.00,,,1.31,Wunderground v.1.15,2013-05-11 05:10:00,
2013-05-11 00:15:00,60.8,59.4,29.91,North,355,0.0,0.0,95,0.00,,,1.31,Wunderground v.1.15,2013-05-11 05:15:00,
2013-05-11 00:20:00,60.8,59.4,29.91,North,355,0.0,0.0,95,0.00,,,1.31,Wunderground v.1.15,2013-05-11 05:20:00,
2013-05-11 00:25:00,60.7,59.3,29.91,North,355,0.0,0.0,95,0.00,,,0.00,Wunderground v.1.15,2013-05-11 05:25:00,
2013-05-11 00:30:00,60.7,59.3,29.91,North,355,0.0,0.0,95,0.00,,,0.00,Wunderground v.1.15,2013-05-11 05:30:00,
2013-05-11 00:35:00,60.7,59.3,29.91,North,355,0.0,0.0,95,0.00,,,0.00,Wunderground v.1.15,2013-05-11 05:35:00,
2013-05-11 00:40:00,60.7,59.3,29.90,North,355,0.0,0.0,95,0.00,,,0.00,Wunderground v.1.15,2013-05-11 05:40:00,
2013-05-11 00:45:00,60.6,59.2,29.90,North,355,0.0,0.0,95,0.00,,,0.00,Wunderground v.1.15,2013-05-11 05:45:00,
2013-05-11 00:50:00,60.5,59.1,29.90,North,355,0.0,0.0,95,0.00,,,0.00,Wunderground v.1.15,2013-05-11 05:50:00,
2013-05-11 00:55:00,60.5,59.1,29.90,North,355,0.0,0.0,95,0.00,,,0.00,Wunderground v.1.15,2013-05-11 05:55:00,
2013-05-11 01:00:00,60.4,59.0,29.90,North,355,0.0,0.0,95,0.00,,,0.00,Wunderground v.1.15,2013-05-11 06:00:00,
2013-05-11 01:05:00,60.4,59.0,29.90,North,355,0.0,0.0,95,0.00,,,0.00,Wunderground v.1.15,2013-05-11 06:05:00,
2013-05-11 01:10:00,60.4,59.0,29.89,North,355,0.0,0.0,95,0.00,,,0.00,Wunderground v.1.15,2013-05-11 06:10:00,
2013-05-11 01:15:00,60.3,58.9,29.89,North,355,0.0,0.0,95,0.00,,,0.00,Wunderground v.1.15,2013-05-11 06:15:00,
2013-05-11 01:20:00,60.4,59.3,29.89,North,355,0.0,0.0,96,0.00,,,0.00,Wunderground v.1.15,2013-05-11 06:20:00,
2013-05-11 01:25:00,60.3,59.2,29.90,North,355,0.0,0.0,96,0.00,,,0.00,Wunderground v.1.15,2013-05-11 06:25:00,
2013-05-11 01:30:00,60.2,58.8,29.90,North,355,0.0,0.0,95,0.00,,,0.00,Wunderground v.1.15,2013-05-11 06:30:00,
2013-05-11 01:35:00,60.2,58.8,29.90,North,355,0.0,0.0,95,0.00,,,0.00,Wunderground v.1.15,2013-05-11 06:35:00,
2013-05-11 01:40:00,60.4,59.3,29.89,North,355,0.0,0.0,96,0.00,,,0.00,Wunderground v.1.15,2013-05-11 06:40:00,
2013-05-11 01:45:00,60.6,59.5,29.89,North,355,0.0,0.0,96,0.00,,,0.00,Wunderground v.1.15,2013-05-11 06:45:00,
2013-05-11 01:50:00,60.7,59.6,29.89,North,355,0.0,0.0,96,0.00,,,0.00,Wunderground v.1.15,2013-05-11 06:50:00,
2013-05-11 01:55:00,60.8,59.7,29.89,North,355,0.0,0.0,96,0.00,,,0.00,Wunderground v.1.15,2013-05-11 06:55:00,
2013-05-11 02:00:00,60.8,59.7,29.89,North,355,0.0,0.0,96,0.00,,,0.00,Wunderground v.1.15,2013-05-11 07:00:00,
2013-05-11 02:05:00,60.9,59.8,29.89,North,355,0.0,0.0,96,0.00,,,0.00,Wunderground v.1.15,2013-05-11 07:05:00,
2013-05-11 02:10:00,60.9,59.8,29.88,North,355,0.0,0.0,96,0.00,,,0.00,Wunderground v.1.15,2013-05-11 07:10:00,
2013-05-11 02:15:00,60.9,59.8,29.88,North,355,0.0,0.0,96,0.00,,,0.00,Wunderground v.1.15,2013-05-11 07:15:00,
2013-05-11 02:20:00,60.8,59.7,29.88,North,355,0.0,0.0,96,0.00,,,0.00,Wunderground v.1.15,2013-05-11 07:20:00,
2013-05-11 02:25:00,60.8,59.7,29.88,North,355,0.0,0.0,96,0.00,,,0.00,Wunderground v.1.15,2013-05-11 07:25:00,
2013-05-11 02:30:00,60.7,59.6,29.88,North,355,0.0,0.0,96,0.00,,,0.00,Wunderground v.1.15,2013-05-11 07:30:00,
2013-05-11 02:35:00,60.7,59.6,29.88,North,355,0.0,0.0,96,0.00,,,0.00,Wunderground v.1.15,2013-05-11 07:35:00,
2013-05-11 02:40:00,60.6,59.5,29.88,North,355,0.0,0.0,96,0.00,,,0.00,Wunderground v.1.15,2013-05-11 07:40:00,
2013-05-11 02:45:00,60.5,59.4,29.88,North,355,0.0,0.0,96,0.00,,,0.00,Wunderground v.1.15,2013-05-11 07:45:00,
2013-05-11 02:55:00,60.1,58.7,29.88,North,355,0.0,0.0,95,0.00,,,0.00,Wunderground v.1.15,2013-05-11 07:55:00,
2013-05-11 03:00:00,60.0,58.9,29.88,North,355,0.0,0.0,96,0.00,,,0.00,Wunderground v.1.15,2013-05-11 08:00:00,
2013-05-11 03:05:00,60.0,58.9,29.88,North,355,0.0,0.0,96,0.00,,,0.00,Wunderground v.1.15,2013-05-11 08:05:00,
2013-05-11 03:10:00,60.0,58.9,29.88,North,355,0.0,0.0,96,0.00,,,0.00,Wunderground v.1.15,2013-05-11 08:10:00,
2013-05-11 03:15:00,60.0,58.9,29.88,North,355,0.0,0.0,96,0.00,,,0.00,Wunderground v.1.15,2013-05-11 08:15:00,
2013-05-11 03:20:00,59.9,58.8,29.88,North,355,0.0,0.0,96,0.00,,,0.00,Wunderground v.1.15,2013-05-11 08:20:00,
2013-05-11 03:25:00,59.9,58.8,29.90,North,355,0.0,0.0,96,0.00,,,0.00,Wunderground v.1.15,2013-05-11 08:25:00,
2013-05-11 03:30:00,59.8,58.7,29.90,North,355,0.0,0.0,96,0.00,,,0.00,Wunderground v.1.15,2013-05-11 08:30:00,
2013-05-11 03:35:00,59.9,58.8,29.90,North,355,0.0,0.0,96,0.00,,,0.00,Wunderground v.1.15,2013-05-11 08:35:00,
2013-05-11 03:40:00,59.9,58.8,29.88,North,355,0.0,0.0,96,0.00,,,0.00,Wunderground v.1.15,2013-05-11 08:40:00,
2013-05-11 03:45:00,59.8,58.7,29.88,North,355,0.0,0.0,96,0.00,,,0.00,Wunderground v.1.15,2013-05-11 08:45:00,
2013-05-11 03:50:00,59.8,58.7,29.88,North,355,0.0,0.0,96,0.00,,,0.00,Wunderground v.1.15,2013-05-11 08:50:00,
2013-05-11 03:55:00,59.7,58.6,29.88,North,355,0.0,0.0,96,0.00,,,0.00,Wunderground v.1.15,2013-05-11 08:55:00,
2013-05-11 04:00:00,59.8,58.7,29.88,North,355,0.0,0.0,96,0.00,,,0.00,Wunderground v.1.15,2013-05-11 09:00:00,
2013-05-11 04:05:00,59.8,58.7,29.88,North,355,0.0,0.0,96,0.00,,,0.00,Wunderground v.1.15,2013-05-11 09:05:00,
2013-05-11 04:10:00,59.8,58.7,29.88,North,355,0.0,0.0,96,0.00,,,0.00,Wunderground v.1.15,2013-05-11 09:10:00,
2013-05-11 04:15:00,59.8,58.7,29.88,North,355,0.0,0.0,96,0.00,,,0.00,Wunderground v.1.15,2013-05-11 09:15:00,
2013-05-11 04:20:00,59.8,58.7,29.88,North,355,0.0,0.0,96,0.00,,,0.00,Wunderground v.1.15,2013-05-11 09:20:00,
2013-05-11 04:25:00,59.8,58.7,29.88,North,355,0.0,0.0,96,0.00,,,0.00,Wunderground v.1.15,2013-05-11 09:25:00,
2013-05-11 04:30:00,59.9,58.8,29.88,North,355,0.0,0.0,96,0.00,,,0.00,Wunderground v.1.15,2013-05-11 09:30:00,
2013-05-11 04:35:00,59.9,58.8,29.88,North,355,0.0,0.0,96,0.00,,,0.00,Wunderground v.1.15,2013-05-11 09:35:00,
2013-05-11 04:40:00,59.9,58.8,29.86,North,355,0.0,0.0,96,0.00,,,0.00,Wunderground v.1.15,2013-05-11 09:40:00,
2013-05-11 04:45:00,60.0,58.9,29.86,North,355,0.0,0.0,96,0.00,,,0.00,Wunderground v.1.15,2013-05-11 09:45:00,
2013-05-11 04:50:00,60.0,58.9,29.86,North,355,0.0,0.0,96,0.00,,,0.00,Wunderground v.1.15,2013-05-11 09:50:00,
2013-05-11 04:55:00,60.0,58.9,29.85,North,355,0.0,0.0,96,0.00,,,0.00,Wunderground v.1.15,2013-05-11 09:55:00,
2013-05-11 05:00:00,60.0,58.9,29.85,North,355,0.0,0.0,96,0.00,,,0.00,Wunderground v.1.15,2013-05-11 10:00:00,
2013-05-11 05:05:00,60.1,59.0,29.85,North,355,0.0,0.0,96,0.00,,,0.00,Wunderground v.1.15,2013-05-11 10:05:00,
2013-05-11 05:10:00,60.2,59.1,29.85,North,355,0.0,0.0,96,0.00,,,0.00,Wunderground v.1.15,2013-05-11 10:10:00,
2013-05-11 05:20:00,60.3,59.2,29.85,North,355,0.0,0.0,96,0.00,,,0.00,Wunderground v.1.15,2013-05-11 10:20:00,
2013-05-11 05:25:00,60.2,59.1,29.87,North,355,0.0,0.0,96,0.00,,,0.00,Wunderground v.1.15,2013-05-11 10:25:00,
2013-05-11 05:30:00,60.1,59.0,29.87,North,355,0.0,0.0,96,0.00,,,0.00,Wunderground v.1.15,2013-05-11 10:30:00,
2013-05-11 05:35:00,60.2,59.1,29.87,North,355,0.0,0.0,96,0.00,,,0.00,Wunderground v.1.15,2013-05-11 10:35:00,
2013-05-11 05:40:00,60.2,59.1,29.88,North,355,0.0,0.0,96,0.00,,,0.01,Wunderground v.1.15,2013-05-11 10:40:00,
2013-05-11 05:45:00,60.3,59.2,29.88,North,355,0.0,0.0,96,0.00,,,0.01,Wunderground v.1.15,2013-05-11 10:45:00,
2013-05-11 05:50:00,60.3,59.2,29.88,North,355,0.0,0.0,96,0.05,,,0.02,Wunderground v.1.15,2013-05-11 10:50:00,
2013-05-11 05:55:00,60.4,59.3,29.87,North,355,0.0,0.0,96,0.08,,,0.03,Wunderground v.1.15,2013-05-11 10:55:00,
2013-05-11 06:00:00,60.5,59.4,29.87,North,355,0.0,0.0,96,0.08,,,0.03,Wunderground v.1.15,2013-05-11 11:00:00,
2013-05-11 06:05:00,60.6,59.5,29.87,North,355,0.0,0.0,96,0.10,,,0.04,Wunderground v.1.15,2013-05-11 11:05:00,
2013-05-11 06:10:00,60.6,59.5,29.88,North,355,0.0,0.0,96,0.13,,,0.05,Wunderground v.1.15,2013-05-11 11:10:00,
2013-05-11 06:15:00,60.7,59.6,29.88,SE,130,0.0,0.0,96,0.13,,,0.06,Wunderground v.1.15,2013-05-11 11:15:00,
2013-05-11 06:20:00,60.9,59.8,29.88,SE,130,0.0,0.0,96,0.11,,,0.07,Wunderground v.1.15,2013-05-11 11:20:00,
2013-05-11 06:25:00,61.1,60.0,29.88,SE,130,0.0,0.0,96,0.10,,,0.08,Wunderground v.1.15,2013-05-11 11:25:00,
2013-05-11 06:30:00,61.3,60.2,29.88,SE,130,0.0,0.0,96,0.08,,,0.08,Wunderground v.1.15,2013-05-11 11:30:00,
2013-05-11 06:35:00,61.4,60.2,29.88,SE,130,0.0,0.0,96,0.07,,,0.09,Wunderground v.1.15,2013-05-11 11:35:00,
2013-05-11 06:40:00,61.6,60.4,29.88,ESE,111,0.0,0.0,96,0.08,,,0.10,Wunderground v.1.15,2013-05-11 11:40:00,
2013-05-11 06:45:00,61.9,60.7,29.88,SSE,167,0.0,0.0,96,0.08,,,0.10,Wunderground v.1.15,2013-05-11 11:45:00,
2013-05-11 06:50:00,62.0,60.8,29.88,West,279,0.0,0.0,96,0.09,,,0.11,Wunderground v.1.15,2013-05-11 11:50:00,
2013-05-11 06:55:00,62.1,60.9,29.88,West,279,0.0,0.0,96,0.11,,,0.12,Wunderground v.1.15,2013-05-11 11:55:00,
2013-05-11 07:00:00,62.1,60.9,29.88,West,279,0.0,0.0,96,0.07,,,0.12,Wunderground v.1.15,2013-05-11 12:00:00,
2013-05-11 07:05:00,62.1,60.9,29.88,West,279,0.0,0.0,96,0.04,,,0.12,Wunderground v.1.15,2013-05-11 12:05:00,
2013-05-11 07:10:00,62.1,60.9,29.86,WNW,300,0.0,0.0,96,0.00,,,0.12,Wunderground v.1.15,2013-05-11 12:10:00,
2013-05-11 07:15:00,62.2,61.0,29.86,WNW,300,0.0,0.0,96,0.00,,,0.12,Wunderground v.1.15,2013-05-11 12:15:00,
2013-05-11 07:20:00,62.2,61.0,29.86,WNW,300,0.0,0.0,96,0.00,,,0.12,Wunderground v.1.15,2013-05-11 12:20:00,
2013-05-11 07:25:00,62.1,60.9,29.85,South,171,0.0,0.0,96,0.00,,,0.13,Wunderground v.1.15,2013-05-11 12:25:00,
2013-05-11 07:30:00,62.2,61.0,29.85,NNE,26,0.0,0.0,96,0.00,,,0.13,Wunderground v.1.15,2013-05-11 12:30:00,
2013-05-11 07:35:00,62.2,61.0,29.85,South,183,0.0,0.0,96,0.00,,,0.13,Wunderground v.1.15,2013-05-11 12:35:00,
2013-05-11 07:40:00,62.3,61.1,29.86,ESE,119,0.0,0.0,96,0.00,,,0.13,Wunderground v.1.15,2013-05-11 12:40:00,
2013-05-11 07:45:00,62.4,61.2,29.86,WNW,284,0.0,0.0,96,0.00,,,0.13,Wunderground v.1.15,2013-05-11 12:45:00,
2013-05-11 07:50:00,62.5,61.3,29.86,West,269,0.0,0.0,96,0.00,,,0.13,Wunderground v.1.15,2013-05-11 12:50:00,
2013-05-11 07:55:00,62.6,61.4,29.85,West,269,0.0,0.0,96,0.00,,,0.13,Wunderground v.1.15,2013-05-11 12:55:00,
2013-05-11 08:00:00,62.7,61.5,29.85,SE,142,0.0,0.0,96,0.00,,,0.13,Wunderground v.1.15,2013-05-11 13:00:00,
2013-05-11 08:05:00,62.9,61.7,29.85,WSW,245,0.0,0.0,96,0.00,,,0.13,Wunderground v.1.15,2013-05-11 13:05:00,
2013-05-11 08:10:00,63.0,61.8,29.86,WSW,245,0.0,0.0,96,0.00,,,0.13,Wunderground v.1.15,2013-05-11 13:10:00,
2013-05-11 08:15:00,63.2,62.3,29.86,WSW,248,0.0,0.0,97,0.00,,,0.13,Wunderground v.1.15,2013-05-11 13:15:00,
2013-05-11 08:20:00,63.3,62.4,29.86,WSW,246,0.0,0.0,97,0.00,,,0.13,Wunderground v.1.15,2013-05-11 13:20:00,
2013-05-11 08:25:00,63.5,62.3,29.88,West,271,0.0,0.0,96,0.00,,,0.13,Wunderground v.1.15,2013-05-11 13:25:00,
2013-05-11 08:30:00,63.5,62.3,29.88,WNW,302,0.0,0.0,96,0.00,,,0.13,Wunderground v.1.15,2013-05-11 13:30:00,
2013-05-11 08:40:00,63.9,63.0,29.90,NW,307,0.0,0.0,97,0.00,,,0.13,Wunderground v.1.15,2013-05-11 13:40:00,
2013-05-11 08:45:00,64.1,62.9,29.90,NW,307,0.0,0.0,96,0.00,,,0.13,Wunderground v.1.15,2013-05-11 13:45:00,
2013-05-11 08:50:00,64.4,63.2,29.90,NNE,17,0.0,0.0,96,0.00,,,0.13,Wunderground v.1.15,2013-05-11 13:50:00,
2013-05-11 08:55:00,64.6,63.7,29.91,NNE,14,0.0,0.0,97,0.00,,,0.13,Wunderground v.1.15,2013-05-11 13:55:00,
2013-05-11 09:00:00,64.6,63.7,29.91,NNW,346,0.0,0.0,97,0.00,,,0.13,Wunderground v.1.15,2013-05-11 14:00:00,
2013-05-11 09:05:00,64.7,63.8,29.91,North,350,0.0,0.0,97,0.00,,,0.13,Wunderground v.1.15,2013-05-11 14:05:00,
2013-05-11 09:10:00,64.8,63.9,29.92,NNE,22,0.0,0.0,97,0.00,,,0.13,Wunderground v.1.15,2013-05-11 14:10:00,
2013-05-11 09:15:00,64.9,64.0,29.92,NNE,25,0.0,0.0,97,0.00,,,0.13,Wunderground v.1.15,2013-05-11 14:15:00,
2013-05-11 09:20:00,65.2,64.3,29.92,NNE,26,0.0,0.0,97,0.00,,,0.13,Wunderground v.1.15,2013-05-11 14:20:00,
2013-05-11 09:25:00,65.4,64.5,29.92,West,267,0.0,0.0,97,0.00,,,0.13,Wunderground v.1.15,2013-05-11 14:25:00,
2013-05-11 09:30:00,65.6,64.7,29.92,North,355,0.0,0.0,97,0.00,,,0.13,Wunderground v.1.15,2013-05-11 14:30:00,
2013-05-11 09:35:00,65.9,65.0,29.92,NW,311,0.0,0.0,97,0.00,,,0.13,Wunderground v.1.15,2013-05-11 14:35:00,
2013-05-11 09:40:00,66.0,64.8,29.91,WSW,244,0.0,0.0,96,0.00,,,0.13,Wunderground v.1.15,2013-05-11 14:40:00,
2013-05-11 09:45:00,66.2,65.0,29.91,SW,223,0.0,0.0,96,0.00,,,0.13,Wunderground v.1.15,2013-05-11 14:45:00,
2013-05-11 09:50:00,66.5,65.3,29.91,West,269,0.0,0.0,96,0.00,,,0.13,Wunderground v.1.15,2013-05-11 14:50:00,
2013-05-11 09:55:00,67.2,66.0,29.91,West,277,0.0,0.0,96,0.00,,,0.13,Wunderground v.1.15,2013-05-11 14:55:00,
2013-05-11 10:00:00,67.6,66.1,29.91,West,259,0.0,0.0,95,0.00,,,0.13,Wunderground v.1.15,2013-05-11 15:00:00,
2013-05-11 10:05:00,68.1,66.0,29.91,West,259,0.0,0.0,93,0.00,,,0.13,Wunderground v.1.15,2013-05-11 15:05:00,
2013-05-11 10:10:00,68.6,65.9,29.91,West,259,0.0,0.0,91,0.00,,,0.13,Wunderground v.1.15,2013-05-11 15:10:00,
2013-05-11 10:20:00,69.3,65.3,29.91,West,261,0.0,0.0,87,0.00,,,0.13,Wunderground v.1.15,2013-05-11 15:20:00,
2013-05-11 10:25:00,69.7,65.0,29.91,NNW,332,0.0,0.0,85,0.00,,,0.13,Wunderground v.1.15,2013-05-11 15:25:00,
2013-05-11 10:30:00,70.4,66.0,29.91,NNE,15,0.0,0.0,86,0.00,,,0.13,Wunderground v.1.15,2013-05-11 15:30:00,
2013-05-11 10:35:00,70.9,65.5,29.91,NW,318,0.0,0.0,83,0.00,,,0.13,Wunderground v.1.15,2013-05-11 15:35:00,
2013-05-11 10:40:00,71.5,66.4,29.91,West,265,0.0,0.0,84,0.00,,,0.13,Wunderground v.1.15,2013-05-11 15:40:00,
2013-05-11 10:45:00,72.3,66.1,29.91,SSW,196,0.0,0.0,81,0.00,,,0.13,Wunderground v.1.15,2013-05-11 15:45:00,
2013-05-11 10:50:00,72.6,66.4,29.91,North,11,0.0,0.0,81,0.00,,,0.13,Wunderground v.1.15,2013-05-11 15:50:00,
2013-05-11 10:55:00,72.7,66.5,29.91,North,5,0.0,0.0,81,0.00,,,0.13,Wunderground v.1.15,2013-05-11 15:55:00,
2013-05-11 11:00:00,72.8,66.6,29.91,North,10,0.0,0.0,81,0.00,,,0.13,Wunderground v.1.15,2013-05-11 16:00:00,
2013-05-11 11:05:00,73.5,66.6,29.91,North,10,0.0,0.0,79,0.00,,,0.13,Wunderground v.1.15,2013-05-11 16:05:00,
2013-05-11 11:10:00,74.2,66.5,29.91,North,10,0.0,0.0,77,0.00,,,0.13,Wunderground v.1.15,2013-05-11 16:10:00,
2013-05-11 11:15:00,74.3,65.9,29.91,North,10,0.0,0.0,75,0.00,,,0.13,Wunderground v.1.15,2013-05-11 16:15:00,
2013-05-11 11:20:00,73.9,66.2,29.91,NE,38,0.0,0.0,77,0.00,,,0.13,Wunderground v.1.15,2013-05-11 16:20:00,
2013-05-11 11:25:00,73.3,65.7,29.92,ENE,63,0.0,0.0,77,0.00,,,0.13,Wunderground v.1.15,2013-05-11 16:25:00,
2013-05-11 11:30:00,72.7,65.8,29.92,ENE,63,0.0,0.0,79,0.00,,,0.13,Wunderground v.1.15,2013-05-11 16:30:00,
2013-05-11 11:35:00,72.2,65.7,29.92,ENE,63,0.0,0.0,80,0.00,,,0.13,Wunderground v.1.15,2013-05-11 16:35:00,
2013-05-11 11:40:00,71.7,65.2,29.92,East,99,0.0,0.0,80,0.00,,,0.13,Wunderground v.1.15,2013-05-11 16:40:00,
2013-05-11 11:45:00,71.3,65.2,29.92,SSE,148,0.0,0.0,81,0.00,,,0.13,Wunderground v.1.15,2013-05-11 16:45:00,
2013-05-11 11:50:00,71.0,65.2,29.92,SSE,148,0.0,0.0,82,0.00,,,0.13,Wunderground v.1.15,2013-05-11 16:50:00,
2013-05-11 11:55:00,70.7,65.3,29.92,SSW,205,0.0,0.0,83,0.00,,,0.13,Wunderground v.1.15,2013-05-11 16:55:00,
2013-05-11 12:00:00,70.5,65.4,29.92,SE,125,0.0,0.0,84,0.00,,,0.13,Wunderground v.1.15,2013-05-11 17:00:00,
2013-05-11 12:05:00,70.4,65.7,29.92,SE,125,0.0,0.0,85,0.00,,,0.13,Wunderground v.1.15,2013-05-11 17:05:00,
2013-05-11 12:10:00,70.3,65.2,29.92,SE,125,0.0,0.0,84,0.00,,,0.13,Wunderground v.1.15,2013-05-11 17:10:00,
2013-05-11 12:15:00,70.6,65.9,29.92,SE,125,0.0,0.0,85,0.00,,,0.13,Wunderground v.1.15,2013-05-11 17:15:00,
2013-05-11 12:20:00,71.0,65.9,29.92,SE,125,0.0,0.0,84,0.00,,,0.13,Wunderground v.1.15,2013-05-11 17:20:00,
2013-05-11 12:25:00,71.6,65.8,29.91,SE,125,0.0,0.0,82,0.00,,,0.13,Wunderground v.1.15,2013-05-11 17:25:00,
2013-05-11 12:35:00,72.0,65.8,29.91,SE,129,0.0,0.0,81,0.00,,,0.13,Wunderground v.1.15,2013-05-11 17:35:00,
2013-05-11 12:40:00,72.3,66.1,29.91,SE,129,0.0,0.0,81,0.00,,,0.13,Wunderground v.1.15,2013-05-11 17:40:00,
2013-05-11 12:45:00,72.5,66.0,29.91,SE,129,0.0,0.0,80,0.00,,,0.13,Wunderground v.1.15,2013-05-11 17:45:00,
2013-05-11 12:50:00,72.6,66.4,29.91,SE,129,0.0,0.0,81,0.00,,,0.13,Wunderground v.1.15,2013-05-11 17:50:00,
2013-05-11 12:55:00,72.6,66.4,29.91,SE,129,0.0,0.0,81,0.00,,,0.13,Wunderground v.1.15,2013-05-11 17:55:00,
2013-05-11 13:00:00,72.7,66.5,29.91,SE,129,0.0,0.0,81,0.00,,,0.13,Wunderground v.1.15,2013-05-11 18:00:00,
2013-05-11 13:05:00,72.8,66.3,29.91,SE,129,0.0,0.0,80,0.00,,,0.13,Wunderground v.1.15,2013-05-11 18:05:00,
2013-05-11 13:10:00,72.8,66.3,29.92,SE,125,0.0,0.0,80,0.00,,,0.13,Wunderground v.1.15,2013-05-11 18:10:00,
2013-05-11 13:15:00,72.8,66.3,29.92,South,184,0.0,0.0,80,0.00,,,0.13,Wunderground v.1.15,2013-05-11 18:15:00,
2013-05-11 13:20:00,73.0,66.5,29.92,SW,233,0.0,0.0,80,0.00,,,0.13,Wunderground v.1.15,2013-05-11 18:20:00,
2013-05-11 13:25:00,73.2,66.7,29.93,ESE,109,0.0,0.0,80,0.00,,,0.13,Wunderground v.1.15,2013-05-11 18:25:00,
2013-05-11 13:30:00,73.4,66.5,29.93,West,268,0.0,0.0,79,0.00,,,0.13,Wunderground v.1.15,2013-05-11 18:30:00,
2013-05-11 13:35:00,73.6,66.3,29.93,West,277,0.0,0.0,78,0.00,,,0.13,Wunderground v.1.15,2013-05-11 18:35:00,
2013-05-11 13:40:00,73.7,66.4,29.93,West,277,0.0,0.0,78,0.00,,,0.13,Wunderground v.1.15,2013-05-11 18:40:00,
2013-05-11 13:45:00,73.9,66.6,29.93,WSW,250,0.0,0.0,78,0.00,,,0.13,Wunderground v.1.15,2013-05-11 18:45:00,
2013-05-11 13:50:00,74.0,66.7,29.93,SE,126,0.0,0.0,78,0.00,,,0.13,Wunderground v.1.15,2013-05-11 18:50:00,
2013-05-11 13:55:00,74.4,67.1,29.92,WSW,243,0.0,0.0,78,0.00,,,0.13,Wunderground v.1.15,2013-05-11 18:55:00,
2013-05-11 14:00:00,74.5,66.4,29.92,SW,229,0.0,0.0,76,0.00,,,0.13,Wunderground v.1.15,2013-05-11 19:00:00,
2013-05-11 14:05:00,74.8,67.5,29.92,SW,229,0.0,0.0,78,0.00,,,0.13,Wunderground v.1.15,2013-05-11 19:05:00,
2013-05-11 14:10:00,75.1,67.4,29.91,SW,225,0.0,0.0,77,0.00,,,0.13,Wunderground v.1.15,2013-05-11 19:10:00,
2013-05-11 14:15:00,75.6,67.5,29.91,WSW,240,0.0,0.0,76,0.00,,,0.13,Wunderground v.1.15,2013-05-11 19:15:00,
2013-05-11 14:20:00,75.6,67.5,29.91,East,99,0.0,0.0,76,0.00,,,0.13,Wunderground v.1.15,2013-05-11 19:20:00,
2013-05-11 14:25:00,75.5,66.6,29.89,NNW,332,0.0,0.0,74,0.00,,,0.13,Wunderground v.1.15,2013-05-11 19:25:00,
2013-05-11 14:30:00,75.5,67.4,29.89,ESE,111,0.0,0.0,76,0.00,,,0.13,Wunderground v.1.15,2013-05-11 19:30:00,
2013-05-11 14:35:00,75.7,67.6,29.89,ESE,111,0.0,0.0,76,0.00,,,0.13,Wunderground v.1.15,2013-05-11 19:35:00,
2013-05-11 14:40:00,76.0,67.5,29.89,West,270,0.0,0.0,75,0.00,,,0.13,Wunderground v.1.15,2013-05-11 19:40:00,
2013-05-11 14:50:00,76.2,67.7,29.89,SSW,207,0.0,0.0,75,0.00,,,0.13,Wunderground v.1.15,2013-05-11 19:50:00,
2013-05-11 14:55:00,76.0,67.5,29.88,ESE,103,0.0,0.0,75,0.00,,,0.13,Wunderground v.1.15,2013-05-11 19:55:00,
2013-05-11 15:00:00,76.1,67.2,29.88,West,275,0.0,0.0,74,0.00,,,0.13,Wunderground v.1.15,2013-05-11 20:00:00,
2013-05-11 15:05:00,75.8,66.9,29.88,SE,140,0.0,0.0,74,0.00,,,0.13,Wunderground v.1.15,2013-05-11 20:05:00,
2013-05-11 15:10:00,75.7,66.8,29.88,WNW,284,0.0,0.0,74,0.00,,,0.13,Wunderground v.1.15,2013-05-11 20:10:00,
2013-05-11 15:15:00,75.9,67.4,29.88,WNW,290,0.0,0.0,75,0.00,,,0.13,Wunderground v.1.15,2013-05-11 20:15:00,
2013-05-11 15:20:00,76.1,67.2,29.88,WNW,288,0.0,0.0,74,0.00,,,0.13,Wunderground v.1.15,2013-05-11 20:20:00,
2013-05-11 15:25:00,76.1,67.2,29.88,WNW,288,0.0,0.0,74,0.00,,,0.13,Wunderground v.1.15,2013-05-11 20:25:00,
2013-05-11 15:30:00,76.1,66.8,29.88,WNW,298,0.0,0.0,73,0.00,,,0.13,Wunderground v.1.15,2013-05-11 20:30:00,
2013-05-11 15:35:00,76.2,67.3,29.88,WNW,298,0.0,0.0,74,0.00,,,0.13,Wunderground v.1.15,2013-05-11 20:35:00,
2013-05-11 15:40:00,76.4,67.9,29.87,WNW,298,0.0,0.0,75,0.00,,,0.13,Wunderground v.1.15,2013-05-11 20:40:00,
2013-05-11 15:45:00,76.4,67.1,29.87,WNW,296,0.0,0.0,73,0.00,,,0.13,Wunderground v.1.15,2013-05-11 20:45:00,
2013-05-11 15:50:00,76.5,67.6,29.87,WSW,253,0.0,0.0,74,0.00,,,0.13,Wunderground v.1.15,2013-05-11 20:50:00,
2013-05-11 15:55:00,76.6,67.7,29.87,SSE,163,0.0,0.0,74,0.00,,,0.13,Wunderground v.1.15,2013-05-11 20:55:00,
2013-05-11 16:00:00,77.0,67.3,29.87,WSW,258,0.0,0.0,72,0.00,,,0.13,Wunderground v.1.15,2013-05-11 21:00:00,
2013-05-11 16:05:00,77.2,67.9,29.87,WSW,258,0.0,0.0,73,0.00,,,0.13,Wunderground v.1.15,2013-05-11 21:05:00,
2013-05-11 16:10:00,77.2,66.7,29.86,West,261,0.0,0.0,70,0.00,,,0.13,Wunderground v.1.15,2013-05-11 21:10:00,
2013-05-11 16:15:00,77.8,68.4,29.86,West,260,0.0,0.0,73,0.00,,,0.13,Wunderground v.1.15,2013-05-11 21:15:00,
2013-05-11 16:20:00,78.4,67.8,29.86,WNW,295,0.0,0.0,70,0.00,,,0.13,Wunderground v.1.15,2013-05-11 21:20:00,
2013-05-11 16:25:00,78.1,67.5,29.86,West,275,0.0,0.0,70,0.00,,,0.13,Wunderground v.1.15,2013-05-11 21:25:00,
2013-05-11 16:30:00,77.7,67.5,29.86,West,275,0.0,0.0,71,0.00,,,0.13,Wunderground v.1.15,2013-05-11 21:30:00,
2013-05-11 16:35:00,77.1,67.8,29.86,NE,45,0.0,0.0,73,0.00,,,0.13,Wunderground v.1.15,2013-05-11 21:35:00,
2013-05-11 16:40:00,75.7,67.2,29.87,NNE,17,0.0,0.0,75,0.00,,,0.13,Wunderground v.1.15,2013-05-11 21:40:00,
2013-05-11 16:45:00,74.7,67.4,29.87,NNE,21,0.0,0.0,78,0.00,,,0.13,Wunderground v.1.15,2013-05-11 21:45:00,
2013-05-11 16:50:00,74.1,67.2,29.87,NE,43,0.0,0.0,79,0.00,,,0.13,Wunderground v.1.15,2013-05-11 21:50:00,
2013-05-11 17:00:00,73.5,67.3,29.87,NE,35,0.0,0.0,81,0.00,,,0.13,Wunderground v.1.15,2013-05-11 22:00:00,
2013-05-11 17:05:00,73.5,67.7,29.87,NE,35,0.0,0.0,82,0.00,,,0.13,Wunderground v.1.15,2013-05-11 22:05:00,
2013-05-11 17:15:00,74.0,67.8,29.87,NE,34,0.0,0.0,81,0.00,,,0.13,Wunderground v.1.15,2013-05-11 22:15:00,
2013-05-11 17:20:00,74.2,67.6,29.87,NNE,22,0.0,0.0,80,0.00,,,0.13,Wunderground v.1.15,2013-05-11 22:20:00,
2013-05-11 17:25:00,73.9,67.7,29.87,NNE,15,0.0,0.0,81,0.55,,,0.15,Wunderground v.1.15,2013-05-11 22:25:00,